createdAt,value
2019-06-10T00:02:43.851Z,19.85
2019-06-10T00:06:26.526Z,19.92
2019-06-10T00:10:04.003Z,19.80
2019-06-10T00:13:46.837Z,19.68
2019-06-10T00:17:22.915Z,19.62
2019-06-10T00:21:06.720Z,19.54
2019-06-10T00:25:05.178Z,19.34
2019-06-10T00:28:47.299Z,19.15
2019-06-10T00:32:22.952Z,19.05
2019-06-10T00:36:07.187Z,19.13
2019-06-10T00:39:51.228Z,19.00
2019-06-10T00:43:33.916Z,18.87
2019-06-10T00:47:14.684Z,18.73
2019-06-10T00:50:53.994Z,18.70
2019-06-10T00:54:31.219Z,18.61
2019-06-10T00:58:07.738Z,18.58
2019-06-10T01:01:43.073Z,18.35
2019-06-10T01:05:25.597Z,18.46
2019-06-10T01:09:01.005Z,18.42
2019-06-10T01:12:45.857Z,18.49
2019-06-10T01:16:21.887Z,18.47
2019-06-10T01:20:05.734Z,18.48
2019-06-10T01:23:47.760Z,18.37
2019-06-10T01:27:31.513Z,18.35
2019-06-10T01:31:28.192Z,18.32
2019-06-10T01:35:11.532Z,18.39
2019-06-10T01:39:09.500Z,18.51
2019-06-10T01:42:52.840Z,18.44
2019-06-10T01:46:28.217Z,18.46
2019-06-10T01:50:04.287Z,18.34
2019-06-10T01:53:47.545Z,18.35
2019-06-10T01:57:23.470Z,18.33
2019-06-10T02:01:25.562Z,18.34
2019-06-10T02:05:01.525Z,18.23
2019-06-10T02:08:38.006Z,18.17
2019-06-10T02:12:24.007Z,18.15
2019-06-10T02:16:04.406Z,18.02
2019-06-10T02:19:46.943Z,18.04
2019-06-10T02:23:23.282Z,17.88
2019-06-10T02:27:05.909Z,17.93
2019-06-10T02:30:50.560Z,17.90
2019-06-10T02:34:27.513Z,17.82
2019-06-10T02:38:33.153Z,17.79
2019-06-10T02:42:30.659Z,17.70
2019-06-10T02:46:31.023Z,17.67
2019-06-10T02:50:10.241Z,17.72
2019-06-10T02:54:07.258Z,17.91
2019-06-10T02:57:44.913Z,18.03
2019-06-10T03:01:23.284Z,18.02
2019-06-10T03:04:57.936Z,17.94
2019-06-10T03:08:36.101Z,18.06
2019-06-10T03:12:17.768Z,18.06
2019-06-10T03:20:12.375Z,18.14
2019-06-10T03:23:53.378Z,18.12
2019-06-10T03:27:35.935Z,18.16
2019-06-10T03:31:15.178Z,18.17
2019-06-10T03:34:55.903Z,18.10
2019-06-10T03:38:32.445Z,18.14
2019-06-10T03:42:16.695Z,18.19
2019-06-10T03:46:13.560Z,18.12
2019-06-10T03:49:56.746Z,18.19
2019-06-10T03:53:33.750Z,18.16
2019-06-10T03:57:09.438Z,18.24
2019-06-10T04:00:44.769Z,18.20
2019-06-10T04:04:28.361Z,18.21
2019-06-10T04:08:12.595Z,18.11
2019-06-10T04:11:55.149Z,18.09
2019-06-10T04:15:32.593Z,18.11
2019-06-10T04:19:15.611Z,17.97
2019-06-10T04:22:52.301Z,18.02
2019-06-10T04:26:34.896Z,17.99
2019-06-10T04:30:12.426Z,18.08
2019-06-10T04:33:54.748Z,18.01
2019-06-10T04:37:32.325Z,17.97
2019-06-10T04:41:14.680Z,18.04
2019-06-10T04:44:52.438Z,17.99
2019-06-10T04:48:36.005Z,18.01
2019-06-10T04:52:12.257Z,18.06
2019-06-10T04:55:48.299Z,18.09
2019-06-10T04:59:26.070Z,18.25
2019-06-10T05:03:28.046Z,18.47
2019-06-10T05:07:12.650Z,18.54
2019-06-10T05:11:14.904Z,18.75
2019-06-10T05:14:52.768Z,18.83
2019-06-10T05:18:36.281Z,18.92
2019-06-10T05:22:12.447Z,18.98
2019-06-10T05:25:56.282Z,19.07
2019-06-10T05:29:52.913Z,19.21
2019-06-10T05:33:35.444Z,19.41
2019-06-10T05:37:13.141Z,19.62
2019-06-10T05:40:55.085Z,19.77
2019-06-10T05:52:33.789Z,19.66
2019-06-10T06:00:23.355Z,19.72
2019-06-10T06:04:08.993Z,19.83
2019-06-10T06:07:44.547Z,19.86
2019-06-10T06:11:36.117Z,19.87
2019-06-10T06:14:59.223Z,19.97
2019-06-10T06:18:36.415Z,20.14
2019-06-10T06:22:13.006Z,20.29
2019-06-10T06:25:55.638Z,20.33
2019-06-10T06:29:33.460Z,20.47
2019-06-10T06:33:15.727Z,20.75
2019-06-10T06:36:52.865Z,20.56
2019-06-10T06:40:37.244Z,20.90
2019-06-10T06:44:35.884Z,21.06
2019-06-10T06:48:39.101Z,20.80
2019-06-10T06:53:07.745Z,20.83
2019-06-10T06:56:18.627Z,21.12
2019-06-10T06:59:54.817Z,21.25
2019-06-10T07:03:38.591Z,20.90
2019-06-10T07:07:36.001Z,20.96
2019-06-10T07:11:22.004Z,21.83
2019-06-10T07:15:27.064Z,21.41
2019-06-10T07:19:10.081Z,21.78
2019-06-10T07:22:46.675Z,22.27
2019-06-10T07:26:29.544Z,22.27
2019-06-10T07:30:11.727Z,22.89
2019-06-10T07:33:52.356Z,22.93
2019-06-10T07:37:48.161Z,23.07
2019-06-10T07:41:32.789Z,23.16
2019-06-10T07:45:27.840Z,23.70
2019-06-10T07:49:13.242Z,23.64
2019-06-10T07:53:08.453Z,23.60
2019-06-10T07:56:49.819Z,23.75
2019-06-10T08:00:22.724Z,23.44
2019-06-10T08:03:58.412Z,23.27
2019-06-10T08:07:43.689Z,22.98
2019-06-10T08:11:25.438Z,23.29
2019-06-10T08:15:08.059Z,23.13
2019-06-10T08:19:09.736Z,23.29
2019-06-10T08:22:33.497Z,23.77
2019-06-10T08:26:25.677Z,23.83
2019-06-10T08:34:32.969Z,24.76
2019-06-10T08:38:08.547Z,24.76
2019-06-10T08:41:47.291Z,24.74
2019-06-10T08:45:28.334Z,24.60
2019-06-10T08:49:04.381Z,24.47
2019-06-10T08:53:03.369Z,25.14
2019-06-10T08:56:47.613Z,24.64
2019-06-10T09:00:45.118Z,23.81
2019-06-10T09:04:25.581Z,24.17
2019-06-10T09:08:02.801Z,24.23
2019-06-10T09:11:49.487Z,24.22
2019-06-10T09:15:29.207Z,24.58
2019-06-10T09:19:13.100Z,24.28
2019-06-10T09:23:21.607Z,24.35
2019-06-10T09:26:54.893Z,24.50
2019-06-10T09:30:57.940Z,24.94
2019-06-10T09:34:35.869Z,24.81
2019-06-10T09:38:14.083Z,25.65
2019-06-10T09:42:02.255Z,26.34
2019-06-10T09:45:56.214Z,26.32
2019-06-10T09:49:37.792Z,26.72
2019-06-10T09:53:26.679Z,25.86
2019-06-10T09:56:57.913Z,25.68
2019-06-10T10:05:05.567Z,27.82
2019-06-10T10:08:45.000Z,27.97
2019-06-10T10:12:25.692Z,27.95
2019-06-10T10:16:02.566Z,28.45
2019-06-10T10:19:48.674Z,28.74
2019-06-10T10:23:58.328Z,28.82
2019-06-10T10:27:28.086Z,28.26
2019-06-10T10:31:25.526Z,29.24
2019-06-10T10:35:08.459Z,29.76
2019-06-10T10:38:44.760Z,30.21
2019-06-10T10:42:41.626Z,29.26
2019-06-10T10:46:25.261Z,29.35
2019-06-10T10:50:07.997Z,28.54
2019-06-10T10:53:46.547Z,30.98
2019-06-10T10:57:27.657Z,30.85
2019-06-10T11:01:04.622Z,31.14
2019-06-10T11:04:48.002Z,30.43
2019-06-10T11:08:46.718Z,29.08
2019-06-10T11:12:29.999Z,30.24
2019-06-10T11:16:05.886Z,30.28
2019-06-10T11:19:49.304Z,29.33
2019-06-10T11:23:36.119Z,30.51
2019-06-10T11:27:18.679Z,30.32
2019-06-10T11:30:56.744Z,29.98
2019-06-10T11:34:38.886Z,30.60
2019-06-10T11:38:14.981Z,30.07
2019-06-10T11:41:52.849Z,31.52
2019-06-10T11:45:29.143Z,30.78
2019-06-10T11:49:04.976Z,30.13
2019-06-10T11:52:47.627Z,31.62
2019-06-10T11:56:23.404Z,31.77
2019-06-10T12:00:13.903Z,29.31
2019-06-10T12:04:04.286Z,29.90
2019-06-10T12:07:46.915Z,30.69
2019-06-10T12:11:23.140Z,31.54
2019-06-10T12:15:06.129Z,29.66
2019-06-10T12:18:42.660Z,29.38
2019-06-10T12:22:25.425Z,31.93
2019-06-10T12:26:03.456Z,32.81
2019-06-10T12:29:45.499Z,31.49
2019-06-10T12:33:24.843Z,31.38
2019-06-10T12:41:15.151Z,29.99
2019-06-10T12:44:53.824Z,30.36
2019-06-10T12:48:35.264Z,29.17
2019-06-10T12:52:12.550Z,28.28
2019-06-10T12:55:55.901Z,28.63
2019-06-10T12:59:52.395Z,29.21
2019-06-10T13:03:35.008Z,28.83
2019-06-10T13:07:12.572Z,27.36
2019-06-10T13:10:55.808Z,27.82
2019-06-10T13:14:53.132Z,27.96
2019-06-10T13:18:36.517Z,28.04
2019-06-10T13:22:33.170Z,27.71
2019-06-10T13:26:17.714Z,27.24
2019-06-10T13:30:13.492Z,27.58
2019-06-10T13:33:56.613Z,26.88
2019-06-10T13:37:53.448Z,27.29
2019-06-10T13:41:36.245Z,27.10
2019-06-10T13:45:12.557Z,27.97
2019-06-10T13:48:55.187Z,27.51
2019-06-10T13:52:32.161Z,27.83
2019-06-10T13:56:38.004Z,28.30
2019-06-10T14:00:14.669Z,28.61
2019-06-10T14:03:58.578Z,29.02
2019-06-10T14:07:55.400Z,30.14
2019-06-10T14:11:37.968Z,31.61
2019-06-10T14:15:17.021Z,31.73
2019-06-10T14:18:58.356Z,32.16
2019-06-10T14:22:34.436Z,33.83
2019-06-10T14:26:18.517Z,34.00
2019-06-10T14:30:15.505Z,33.77
2019-06-10T14:33:59.179Z,34.19
2019-06-10T14:37:39.108Z,35.24
2019-06-10T14:45:16.595Z,31.90
2019-06-10T14:48:58.700Z,30.64
2019-06-10T14:52:34.400Z,30.17
2019-06-10T14:56:19.591Z,29.86
2019-06-10T15:00:16.676Z,29.44
2019-06-10T15:03:59.206Z,29.56
2019-06-10T15:07:34.882Z,28.77
2019-06-10T15:11:18.431Z,29.08
2019-06-10T15:18:45.991Z,29.03
2019-06-10T15:22:28.643Z,28.31
2019-06-10T15:26:04.718Z,28.47
2019-06-10T15:29:47.248Z,28.27
2019-06-10T15:33:25.014Z,27.90
2019-06-10T15:37:02.850Z,27.63
2019-06-10T15:40:38.422Z,26.80
2019-06-10T15:44:18.188Z,26.62
2019-06-10T15:47:58.520Z,26.28
2019-06-10T15:51:34.152Z,26.72
2019-06-10T15:55:38.747Z,27.15
2019-06-10T15:59:04.569Z,27.03
2019-06-10T16:02:47.141Z,27.36
2019-06-10T16:06:23.177Z,27.30
2019-06-10T16:10:06.931Z,27.25
2019-06-10T16:13:43.110Z,27.37
2019-06-10T16:17:26.166Z,26.89
2019-06-10T16:21:04.353Z,26.94
2019-06-10T16:24:46.731Z,26.88
2019-06-10T16:28:24.549Z,26.88
2019-06-10T16:32:06.712Z,26.75
2019-06-10T16:35:42.170Z,26.81
2019-06-10T16:39:26.807Z,26.62
2019-06-10T16:43:09.037Z,26.50
2019-06-10T16:46:52.655Z,26.45
2019-06-10T16:50:49.505Z,26.23
2019-06-10T16:54:33.041Z,26.40
2019-06-10T16:58:30.339Z,26.00
2019-06-10T17:02:12.999Z,26.05
2019-06-10T17:05:48.343Z,25.90
2019-06-10T17:09:26.149Z,25.65
2019-06-10T17:13:03.941Z,25.38
2019-06-10T17:16:47.585Z,24.90
2019-06-10T17:20:25.150Z,24.39
2019-06-10T17:24:03.482Z,22.83
2019-06-10T17:27:46.026Z,23.41
2019-06-10T17:31:25.727Z,23.11
2019-06-10T17:35:06.936Z,23.03
2019-06-10T17:38:44.248Z,22.84
2019-06-10T17:42:30.889Z,23.58
2019-06-10T17:46:12.450Z,23.49
2019-06-10T17:49:55.030Z,23.74
2019-06-10T17:53:32.977Z,23.68
2019-06-10T17:57:14.940Z,23.49
2019-06-10T18:00:52.816Z,23.62
2019-06-10T18:04:34.935Z,23.79
2019-06-10T18:08:10.122Z,23.42
2019-06-10T18:11:46.196Z,23.49
2019-06-10T18:15:24.018Z,23.40
2019-06-10T18:19:09.497Z,23.29
2019-06-10T18:22:46.353Z,23.46
2019-06-10T18:26:23.168Z,22.96
2019-06-10T18:34:29.898Z,23.10
2019-06-10T18:38:12.775Z,22.83
2019-06-10T18:41:55.858Z,22.67
2019-06-10T18:45:39.184Z,22.59
2019-06-10T18:49:37.433Z,22.49
2019-06-10T18:53:20.103Z,22.42
2019-06-10T18:57:02.938Z,22.03
2019-06-10T19:01:34.375Z,22.04
2019-06-10T19:09:06.302Z,21.99
2019-06-10T19:12:42.608Z,22.06
2019-06-10T19:16:25.195Z,21.98
2019-06-10T19:20:03.745Z,21.88
2019-06-10T19:23:45.723Z,21.82
2019-06-10T19:27:23.702Z,21.82
2019-06-10T19:31:06.084Z,21.77
2019-06-10T19:34:48.030Z,21.49
2019-06-10T19:38:27.166Z,21.83
2019-06-10T19:42:02.922Z,21.96
2019-06-10T19:47:07.063Z,21.80
2019-06-10T19:51:54.258Z,21.87
2019-06-10T19:55:25.265Z,21.82
2019-06-10T19:58:48.403Z,21.63
2019-06-10T20:02:13.147Z,21.16
2019-06-10T20:05:36.414Z,21.77
2019-06-10T20:08:59.946Z,21.52
2019-06-10T20:12:23.123Z,21.82
2019-06-10T20:16:33.636Z,21.67
2019-06-10T20:20:16.655Z,21.63
2019-06-10T20:24:15.941Z,21.81
2019-06-10T20:28:33.245Z,21.62
2019-06-10T20:32:08.511Z,21.25
2019-06-10T20:35:51.020Z,21.41
2019-06-10T20:39:29.224Z,21.07
2019-06-10T20:43:03.693Z,21.08
2019-06-10T20:46:47.736Z,21.02
2019-06-10T20:50:33.852Z,21.03
2019-06-10T20:54:16.674Z,20.87
2019-06-10T20:58:02.951Z,21.05
2019-06-10T21:01:38.828Z,21.13
2019-06-10T21:05:14.433Z,21.04
2019-06-10T21:08:51.216Z,20.89
2019-06-10T21:12:34.519Z,21.06
2019-06-10T21:16:12.646Z,21.07
2019-06-10T21:19:49.181Z,20.65
2019-06-10T21:23:32.741Z,20.63
2019-06-10T21:27:08.177Z,20.63
2019-06-10T21:30:49.594Z,20.45
2019-06-10T21:34:22.476Z,20.48
2019-06-10T21:38:05.100Z,20.62
2019-06-10T21:41:42.578Z,20.41
2019-06-10T21:45:22.734Z,20.18
2019-06-10T21:49:07.105Z,20.26
2019-06-10T21:52:45.774Z,20.21
2019-06-10T21:56:22.486Z,20.34
2019-06-10T22:04:07.245Z,20.05
2019-06-10T22:07:43.830Z,19.96
2019-06-10T22:11:19.555Z,19.85
2019-06-10T22:15:02.157Z,19.89
2019-06-10T22:18:38.356Z,20.07
2019-06-10T22:22:36.247Z,20.12
2019-06-10T22:26:19.119Z,20.09
2019-06-10T22:29:57.015Z,19.71
2019-06-10T22:33:43.155Z,19.76
2019-06-10T22:37:29.723Z,19.70
2019-06-10T22:41:12.400Z,19.39
2019-06-10T22:44:47.737Z,19.74
2019-06-10T22:48:33.273Z,19.82
2019-06-10T22:52:28.134Z,19.73
2019-06-10T22:56:13.108Z,19.53
2019-06-10T22:59:48.821Z,19.65
2019-06-10T23:03:31.369Z,19.33
2019-06-10T23:07:06.661Z,19.20
2019-06-10T23:10:50.593Z,19.18
2019-06-10T23:14:36.517Z,18.56
2019-06-10T23:18:19.050Z,19.13
2019-06-10T23:21:55.710Z,19.22
2019-06-10T23:25:38.698Z,19.24
2019-06-10T23:29:14.210Z,19.42
2019-06-10T23:32:58.141Z,19.31
2019-06-10T23:36:43.167Z,19.11
2019-06-10T23:40:36.194Z,19.42
2019-06-10T23:44:12.340Z,19.16
2019-06-10T23:47:56.538Z,19.20
2019-06-10T23:51:38.262Z,19.18
2019-06-10T23:55:22.714Z,18.97
2019-06-10T23:59:18.479Z,19.28
